Terminal Aerodrome Forecast
Issued by NWS Portland, OR

Home | Current Version | Previous Version | Text Only | Print | Product List | Glossary On
Versions: 1 2 3 4 5 6 7 8 9 10 11 12 13 14 15 16 17 18
183
FTUS46 KPQR 221720
TAFEUG
TAF
KEUG 221720Z 2218/2318 23006KT P6SM OVC015
      TEMPO 2218/2221 -SHRA
     FM222200 23006KT P6SM SCT015 BKN025
     FM230300 24007KT P6SM SCT025 BKN100
     FM230600 23005KT P6SM OVC025
     FM231200 24004KT P6SM -DZ OVC015=

USA.gov is the U.S. government's official web portal to all federal, state and local government web resources and services.